Time;durP1;ratioP1;P1;durP2;ratioP2;P2;SDS_P1;SDS_P2;PMS_P1;PMS_P2;Temp;Humidity;BMP_temperature;BMP_pressure;BME280_temperature;BME280_humidity;BME280_pressure;Samples;Min_cycle;Max_cycle;Signal;HPM_P1;HPM_P2
2024/01/03 00:02:36;;;;;;;5.60;1.70;;;;;;;;;;103615;1292;545570;-71
2024/01/03 00:06:11;;;;;;;5.80;1.80;;;;;;;;;;103742;1289;545188;-68
2024/01/03 00:09:52;;;;;;;5.30;1.80;;;;;;;;;;103464;1291;544793;-69
2024/01/03 00:13:38;;;;;;;5.40;1.70;;;;;;;;;;103477;1292;545421;-69
2024/01/03 00:17:04;;;;;;;3.80;1.30;;;;;;;;;;103457;1291;545251;-71
2024/01/03 00:20:41;;;;;;;5.00;1.30;;;;;;;;;;103454;1292;545891;-71
2024/01/03 00:24:19;;;;;;;4.00;1.20;;;;;;;;;;103611;1289;545940;-69
2024/01/03 00:27:55;;;;;;;4.40;1.30;;;;;;;;;;103644;1289;546026;-71
2024/01/03 00:31:43;;;;;;;5.10;1.30;;;;;;;;;;103420;1295;545296;-69
2024/01/03 00:35:08;;;;;;;5.00;1.40;;;;;;;;;;103589;1289;544706;-71
2024/01/03 00:38:47;;;;;;;6.40;1.80;;;;;;;;;;103441;1291;544915;-71
2024/01/03 00:42:25;;;;;;;3.50;1.10;;;;;;;;;;103555;1292;545324;-69
2024/01/03 00:45:59;;;;;;;4.10;1.00;;;;;;;;;;103678;1289;545483;-71
2024/01/03 00:49:40;;;;;;;2.80;0.80;;;;;;;;;;103474;1292;544939;-71
2024/01/03 00:53:15;;;;;;;3.90;1.20;;;;;;;;;;103785;1291;545369;-69
2024/01/03 00:56:58;;;;;;;4.70;1.20;;;;;;;;;;103400;1291;544813;-71
2024/01/03 01:00:33;;;;;;;3.70;1.00;;;;;;;;;;103664;1291;545268;-69
2024/01/03 01:14:36;;;;;;;2.60;1.10;;;;;;;;;;104511;1286;550171;-69
2024/01/03 01:17:30;;;;;;;4.10;1.50;;;;;;;;;;103904;1292;545467;-71
2024/01/03 01:21:07;;;;;;;3.50;1.10;;;;;;;;;;103404;1293;545065;-69
2024/01/03 01:24:40;;;;;;;2.80;0.80;;;;;;;;;;103787;1294;544761;-69
2024/01/03 01:28:22;;;;;;;1.50;0.70;;;;;;;;;;103626;1290;545030;-69
2024/01/03 01:32:00;;;;;;;2.20;0.90;;;;;;;;;;104179;1285;544760;-71
2024/01/03 01:35:36;;;;;;;2.10;0.90;;;;;;;;;;103465;1295;544946;-69
2024/01/03 01:39:14;;;;;;;2.80;0.90;;;;;;;;;;103636;1292;545434;-69
2024/01/03 01:42:51;;;;;;;3.20;0.90;;;;;;;;;;103585;1291;545494;-69
2024/01/03 01:46:29;;;;;;;3.10;1.00;;;;;;;;;;103471;1296;544703;-69
2024/01/03 01:50:08;;;;;;;2.90;1.00;;;;;;;;;;103490;1292;545141;-70
2024/01/03 01:53:44;;;;;;;4.20;1.10;;;;;;;;;;103644;1289;545004;-69
2024/01/03 01:57:18;;;;;;;4.10;1.20;;;;;;;;;;103581;1290;545040;-69
2024/01/03 02:00:59;;;;;;;5.50;1.60;;;;;;;;;;103516;1295;544847;-69
2024/01/03 02:04:36;;;;;;;5.20;1.60;;;;;;;;;;103577;1290;544797;-71
2024/01/03 02:08:14;;;;;;;4.90;1.40;;;;;;;;;;103935;1286;545880;-71
2024/01/03 02:11:50;;;;;;;3.20;0.80;;;;;;;;;;103618;1289;546652;-70
2024/01/03 02:15:29;;;;;;;4.10;1.20;;;;;;;;;;103606;1292;544805;-71
2024/01/03 02:19:05;;;;;;;2.20;0.80;;;;;;;;;;103601;1289;544805;-71
2024/01/03 02:22:44;;;;;;;1.30;0.50;;;;;;;;;;103550;1291;545940;-69
2024/01/03 02:26:17;;;;;;;1.30;0.50;;;;;;;;;;103575;1293;545393;-70
2024/01/03 02:29:59;;;;;;;1.70;0.50;;;;;;;;;;103574;1290;545626;-71
2024/01/03 02:33:36;;;;;;;0.80;0.40;;;;;;;;;;103406;1292;545961;-71
2024/01/03 02:37:13;;;;;;;1.60;0.60;;;;;;;;;;103457;1292;544925;-69
2024/01/03 02:40:51;;;;;;;5.20;1.70;;;;;;;;;;103794;1295;545265;-72
2024/01/03 02:44:28;;;;;;;4.60;1.40;;;;;;;;;;103543;1291;546057;-71
2024/01/03 02:48:06;;;;;;;4.00;1.40;;;;;;;;;;103651;1289;545046;-69
2024/01/03 02:51:43;;;;;;;3.50;1.00;;;;;;;;;;103674;1291;544770;-71
2024/01/03 02:55:17;;;;;;;2.00;0.80;;;;;;;;;;103402;1292;545429;-71
2024/01/03 02:58:58;;;;;;;2.70;0.90;;;;;;;;;;103580;1290;545292;-71
2024/01/03 03:02:36;;;;;;;1.40;0.70;;;;;;;;;;103519;1294;545008;-71
2024/01/03 03:06:13;;;;;;;1.70;0.80;;;;;;;;;;103557;1303;545497;-69
2024/01/03 03:09:50;;;;;;;2.40;0.80;;;;;;;;;;103526;1294;544854;-71
2024/01/03 03:13:28;;;;;;;2.10;0.70;;;;;;;;;;103618;1291;544984;-71
2024/01/03 03:17:05;;;;;;;2.80;0.90;;;;;;;;;;103735;1292;545645;-71
2024/01/03 03:20:42;;;;;;;2.60;1.10;;;;;;;;;;103868;1288;545657;-69
2024/01/03 03:24:16;;;;;;;1.50;0.70;;;;;;;;;;103917;1289;544964;-70
2024/01/03 03:27:58;;;;;;;1.50;0.60;;;;;;;;;;103612;1289;544763;-71
2024/01/03 03:31:35;;;;;;;1.60;0.60;;;;;;;;;;103587;1292;545422;-71
2024/01/03 03:35:13;;;;;;;2.40;0.80;;;;;;;;;;103570;1292;545003;-71
2024/01/03 03:38:50;;;;;;;1.70;0.70;;;;;;;;;;103800;1290;545401;-71
2024/01/03 03:42:28;;;;;;;2.00;0.60;;;;;;;;;;103510;1294;545044;-72
2024/01/03 03:46:05;;;;;;;2.80;0.90;;;;;;;;;;103712;1294;546256;-71
2024/01/03 03:49:43;;;;;;;2.80;0.80;;;;;;;;;;103912;1289;544739;-71
2024/01/03 03:53:20;;;;;;;2.40;0.90;;;;;;;;;;103623;1291;546085;-70
2024/01/03 03:56:58;;;;;;;3.90;1.30;;;;;;;;;;103518;1295;544787;-70
2024/01/03 04:00:35;;;;;;;3.80;1.60;;;;;;;;;;103715;1290;544840;-71
2024/01/03 04:04:12;;;;;;;1.90;0.70;;;;;;;;;;103834;1289;544958;-72
2024/01/03 04:07:46;;;;;;;0.70;0.40;;;;;;;;;;103874;1288;544950;-73
2024/01/03 04:11:27;;;;;;;1.40;0.50;;;;;;;;;;103783;1289;544953;-70
2024/01/03 04:15:10;;;;;;;1.60;0.40;;;;;;;;;;104162;1292;547199;-70
2024/01/03 04:18:42;;;;;;;0.70;0.40;;;;;;;;;;104830;1289;544602;-73
2024/01/03 04:22:19;;;;;;;1.20;0.50;;;;;;;;;;104726;1291;544847;-69
2024/01/03 04:25:57;;;;;;;2.00;0.40;;;;;;;;;;104863;1292;544982;-71
2024/01/03 04:29:34;;;;;;;0.80;0.50;;;;;;;;;;104805;1290;544965;-70
2024/01/03 04:33:12;;;;;;;1.20;0.50;;;;;;;;;;105075;1290;544803;-70
2024/01/03 04:36:50;;;;;;;1.80;0.40;;;;;;;;;;104714;1291;545022;-72
2024/01/03 04:40:27;;;;;;;1.40;0.50;;;;;;;;;;103880;1289;544805;-72
2024/01/03 04:44:04;;;;;;;2.10;0.50;;;;;;;;;;103721;1291;545035;-73
2024/01/03 04:47:42;;;;;;;1.70;0.60;;;;;;;;;;103828;1303;545612;-71
2024/01/03 04:51:19;;;;;;;1.00;0.50;;;;;;;;;;103738;1289;545041;-71
2024/01/03 04:54:57;;;;;;;2.00;0.70;;;;;;;;;;103813;1289;544795;-70
2024/01/03 04:58:34;;;;;;;1.40;0.50;;;;;;;;;;103687;1288;544912;-69
2024/01/03 05:02:12;;;;;;;2.00;0.60;;;;;;;;;;103691;1292;545043;-69
2024/01/03 05:05:49;;;;;;;1.30;0.60;;;;;;;;;;103624;1291;544958;-70
2024/01/03 05:09:28;;;;;;;1.40;0.60;;;;;;;;;;103642;1290;545330;-70
2024/01/03 05:13:04;;;;;;;1.20;0.50;;;;;;;;;;103655;1291;544951;-70
2024/01/03 05:16:42;;;;;;;1.90;0.50;;;;;;;;;;103626;1291;546528;-72
2024/01/03 05:20:19;;;;;;;1.50;0.60;;;;;;;;;;103808;1292;545929;-71
2024/01/03 05:23:56;;;;;;;1.50;0.40;;;;;;;;;;103543;1292;544808;-69
2024/01/03 05:27:34;;;;;;;1.10;0.50;;;;;;;;;;103591;1295;545003;-72
2024/01/03 05:31:11;;;;;;;1.30;0.50;;;;;;;;;;103941;1289;544914;-72
2024/01/03 05:34:49;;;;;;;1.50;0.50;;;;;;;;;;103700;1291;545784;-72
2024/01/03 05:38:26;;;;;;;3.10;0.80;;;;;;;;;;103520;1303;545024;-72
2024/01/03 05:42:04;;;;;;;2.10;0.70;;;;;;;;;;103726;1289;545074;-70
2024/01/03 05:45:41;;;;;;;2.20;0.60;;;;;;;;;;103700;1290;545026;-69
2024/01/03 05:49:19;;;;;;;1.70;0.70;;;;;;;;;;103727;1289;544962;-70
2024/01/03 05:52:56;;;;;;;2.10;0.60;;;;;;;;;;103779;1292;544903;-72
2024/01/03 05:56:33;;;;;;;2.90;0.90;;;;;;;;;;103737;1292;545058;-72
2024/01/03 06:00:11;;;;;;;3.00;1.00;;;;;;;;;;103839;1292;545952;-71
2024/01/03 06:03:49;;;;;;;3.40;0.80;;;;;;;;;;103657;1293;544734;-70
2024/01/03 06:07:26;;;;;;;3.50;0.80;;;;;;;;;;103731;1292;545826;-70
2024/01/03 06:11:03;;;;;;;2.50;0.60;;;;;;;;;;103713;1291;545767;-73
2024/01/03 06:14:41;;;;;;;2.40;0.60;;;;;;;;;;103729;1292;544938;-70
2024/01/03 06:18:19;;;;;;;2.70;1.00;;;;;;;;;;103702;1291;544800;-71
2024/01/03 06:21:56;;;;;;;4.90;1.60;;;;;;;;;;103757;1289;544939;-71
2024/01/03 06:25:33;;;;;;;6.70;3.00;;;;;;;;;;103661;1291;545183;-70
2024/01/03 06:29:11;;;;;;;6.00;2.30;;;;;;;;;;103745;1294;545010;-71
2024/01/03 06:32:44;;;;;;;3.90;1.10;;;;;;;;;;103749;1289;544802;-69
2024/01/03 06:36:22;;;;;;;2.40;0.70;;;;;;;;;;103693;1290;545143;-72
2024/01/03 06:40:03;;;;;;;2.50;0.80;;;;;;;;;;103838;1288;544974;-71
2024/01/03 06:43:41;;;;;;;2.50;0.80;;;;;;;;;;103818;1289;544941;-71
2024/01/03 06:47:18;;;;;;;2.30;0.60;;;;;;;;;;103627;1291;545171;-68
2024/01/03 06:51:11;;;;;;;2.20;0.80;;;;;;;;;;103787;1293;547821;-72
2024/01/03 06:54:34;;;;;;;5.00;1.10;;;;;;;;;;103630;1289;544977;-71
2024/01/03 06:58:10;;;;;;;5.00;1.10;;;;;;;;;;103679;1292;544999;-72
2024/01/03 07:01:48;;;;;;;3.60;1.30;;;;;;;;;;103708;1289;544853;-70
2024/01/03 07:05:26;;;;;;;4.70;1.60;;;;;;;;;;103792;1292;545444;-70
2024/01/03 07:09:03;;;;;;;5.10;1.20;;;;;;;;;;103793;1289;544906;-72
2024/01/03 07:12:38;;;;;;;5.10;1.20;;;;;;;;;;103874;1289;544969;-72
2024/01/03 07:16:20;;;;;;;8.00;1.30;;;;;;;;;;104186;1283;545017;-70
2024/01/03 07:19:55;;;;;;;4.40;1.10;;;;;;;;;;103885;1290;544603;-69
2024/01/03 07:23:32;;;;;;;6.20;1.20;;;;;;;;;;103769;1291;545367;-70
2024/01/03 07:27:11;;;;;;;4.10;0.90;;;;;;;;;;103785;1289;545011;-69
2024/01/03 07:30:47;;;;;;;4.70;1.10;;;;;;;;;;103996;1300;545007;-69
2024/01/03 07:34:26;;;;;;;5.90;1.40;;;;;;;;;;103908;1288;544826;-70
2024/01/03 07:38:03;;;;;;;3.20;1.10;;;;;;;;;;103662;1291;545912;-70
2024/01/03 07:41:40;;;;;;;6.60;1.80;;;;;;;;;;103804;1292;545706;-69
2024/01/03 07:45:18;;;;;;;7.20;2.50;;;;;;;;;;103788;1290;544837;-69
2024/01/03 07:48:55;;;;;;;4.90;1.80;;;;;;;;;;104002;1290;544750;-70
2024/01/03 07:52:38;;;;;;;4.60;1.40;;;;;;;;;;103483;1305;547904;-69
2024/01/03 07:56:10;;;;;;;4.00;1.40;;;;;;;;;;103850;1289;545020;-72
2024/01/03 07:59:48;;;;;;;4.30;1.30;;;;;;;;;;103819;1292;545445;-71
2024/01/03 08:03:21;;;;;;;4.50;1.60;;;;;;;;;;103766;1291;544743;-70
2024/01/03 08:07:02;;;;;;;3.20;1.30;;;;;;;;;;103655;1289;545042;-72
2024/01/03 08:10:40;;;;;;;5.00;1.20;;;;;;;;;;103868;1289;544939;-71
2024/01/03 08:14:17;;;;;;;3.60;1.10;;;;;;;;;;103658;1289;544739;-70
2024/01/03 08:17:54;;;;;;;4.40;1.20;;;;;;;;;;103920;1289;544833;-71
2024/01/03 08:21:33;;;;;;;5.00;1.10;;;;;;;;;;103704;1292;545510;-72
2024/01/03 08:25:10;;;;;;;4.60;1.00;;;;;;;;;;103890;1290;544807;-71
2024/01/03 08:28:47;;;;;;;2.40;1.00;;;;;;;;;;103632;1291;545602;-71
2024/01/03 08:32:25;;;;;;;3.40;1.10;;;;;;;;;;103744;1294;545538;-73
2024/01/03 08:36:02;;;;;;;3.60;1.30;;;;;;;;;;103720;1295;544758;-71
2024/01/03 08:39:39;;;;;;;5.30;1.30;;;;;;;;;;103754;1292;544889;-70
2024/01/03 08:43:17;;;;;;;4.50;1.00;;;;;;;;;;103712;1291;545040;-71
2024/01/03 08:46:54;;;;;;;3.60;0.90;;;;;;;;;;104011;1286;545326;-70
2024/01/03 08:50:32;;;;;;;4.30;1.20;;;;;;;;;;103681;1291;544913;-71
2024/01/03 08:54:09;;;;;;;4.00;1.30;;;;;;;;;;103740;1295;544946;-74
2024/01/03 08:57:48;;;;;;;3.80;1.20;;;;;;;;;;103640;1291;544791;-70
2024/01/03 09:01:27;;;;;;;1.90;0.90;;;;;;;;;;103757;1291;545039;-71
2024/01/03 09:04:58;;;;;;;4.50;1.10;;;;;;;;;;103664;1291;544846;-70
2024/01/03 09:08:39;;;;;;;2.80;1.00;;;;;;;;;;103663;1291;544807;-73
2024/01/03 09:12:18;;;;;;;3.50;1.10;;;;;;;;;;103647;1297;544826;-71
2024/01/03 09:15:50;;;;;;;3.80;1.20;;;;;;;;;;103956;1288;544974;-70
2024/01/03 09:19:32;;;;;;;3.60;1.30;;;;;;;;;;103552;1291;545010;-71
2024/01/03 09:23:09;;;;;;;3.90;1.50;;;;;;;;;;103715;1291;544793;-72
2024/01/03 09:26:47;;;;;;;5.50;1.90;;;;;;;;;;103566;1289;544854;-70
2024/01/03 09:30:20;;;;;;;4.50;1.70;;;;;;;;;;103886;1288;545104;-70
2024/01/03 09:33:57;;;;;;;3.30;1.20;;;;;;;;;;103794;1291;544852;-72
2024/01/03 09:37:35;;;;;;;3.50;1.30;;;;;;;;;;103672;1289;545167;-71
2024/01/03 09:41:16;;;;;;;3.80;1.20;;;;;;;;;;103502;1291;545313;-71
2024/01/03 09:44:56;;;;;;;4.70;1.60;;;;;;;;;;103675;1292;545895;-71
2024/01/03 09:48:31;;;;;;;4.00;1.10;;;;;;;;;;103734;1292;545725;-71
2024/01/03 09:52:09;;;;;;;2.70;0.80;;;;;;;;;;103827;1291;545152;-72
2024/01/03 09:55:46;;;;;;;8.50;2.20;;;;;;;;;;103616;1298;545605;-71
2024/01/03 09:59:23;;;;;;;8.90;2.30;;;;;;;;;;103850;1288;544966;-72
2024/01/03 10:03:01;;;;;;;7.60;2.40;;;;;;;;;;103871;1289;546066;-70
2024/01/03 10:06:59;;;;;;;6.10;2.00;;;;;;;;;;103809;1292;544727;-70
2024/01/03 10:10:12;;;;;;;7.20;1.60;;;;;;;;;;103833;1290;544757;-72
2024/01/03 10:13:53;;;;;;;5.40;1.70;;;;;;;;;;103737;1288;544771;-71
2024/01/03 10:17:32;;;;;;;4.90;1.30;;;;;;;;;;104056;1285;545229;-70
2024/01/03 10:21:12;;;;;;;6.00;1.40;;;;;;;;;;103765;1292;544772;-71
2024/01/03 10:24:46;;;;;;;5.60;1.90;;;;;;;;;;103878;1292;545378;-72
2024/01/03 10:28:23;;;;;;;10.50;5.30;;;;;;;;;;103802;1289;545055;-71
2024/01/03 10:32:09;;;;;;;6.70;2.20;;;;;;;;;;103503;1292;548017;-70
2024/01/03 10:35:44;;;;;;;11.90;4.70;;;;;;;;;;103495;1305;545024;-72
2024/01/03 10:39:16;;;;;;;8.20;3.20;;;;;;;;;;103748;1293;544734;-71
2024/01/03 10:42:54;;;;;;;6.90;2.50;;;;;;;;;;103642;1291;544794;-71
2024/01/03 10:46:31;;;;;;;4.30;1.50;;;;;;;;;;103948;1292;545097;-70
2024/01/03 10:50:09;;;;;;;7.20;1.80;;;;;;;;;;103640;1292;545225;-71
2024/01/03 10:53:47;;;;;;;5.50;2.10;;;;;;;;;;103651;1291;544881;-70
2024/01/03 10:57:23;;;;;;;6.30;1.60;;;;;;;;;;103732;1295;545491;-72
2024/01/03 11:01:07;;;;;;;6.00;1.90;;;;;;;;;;103540;1292;544331;-70
2024/01/03 11:04:56;;;;;;;11.10;4.00;;;;;;;;;;103737;1293;544791;-70
2024/01/03 11:08:16;;;;;;;8.70;2.80;;;;;;;;;;104674;1285;545360;-71
2024/01/03 11:12:25;;;;;;;10.00;2.20;;;;;;;;;;103699;1292;544701;-70
2024/01/03 11:15:27;;;;;;;9.00;2.50;;;;;;;;;;103745;1293;546086;-70
2024/01/03 11:19:08;;;;;;;8.70;2.40;;;;;;;;;;103680;1292;545333;-71
2024/01/03 11:22:54;;;;;;;9.80;2.50;;;;;;;;;;103619;1292;544754;-72
2024/01/03 11:26:41;;;;;;;9.80;2.30;;;;;;;;;;103543;1298;545007;-71
2024/01/03 11:30:00;;;;;;;11.80;3.80;;;;;;;;;;103695;1292;545070;-69
2024/01/03 11:33:38;;;;;;;10.10;3.50;;;;;;;;;;103734;1290;545403;-71
2024/01/03 11:37:18;;;;;;;9.70;3.50;;;;;;;;;;103775;1292;544887;-71
2024/01/03 11:40:53;;;;;;;13.30;3.80;;;;;;;;;;103694;1292;545043;-70
2024/01/03 11:44:30;;;;;;;10.60;4.00;;;;;;;;;;103660;1291;545470;-73
2024/01/03 11:48:09;;;;;;;11.10;3.10;;;;;;;;;;103689;1291;544811;-70
2024/01/03 11:51:45;;;;;;;8.70;3.40;;;;;;;;;;103789;1292;544933;-70
2024/01/03 11:55:19;;;;;;;9.10;2.90;;;;;;;;;;103844;1295;545662;-69
2024/01/03 11:59:02;;;;;;;11.50;4.80;;;;;;;;;;103688;1294;545896;-71
2024/01/03 12:02:47;;;;;;;13.30;5.20;;;;;;;;;;103670;1295;544823;-72
2024/01/03 12:06:19;;;;;;;12.40;4.10;;;;;;;;;;103903;1289;544973;-71
2024/01/03 12:09:53;;;;;;;9.20;3.60;;;;;;;;;;103637;1295;544984;-71
2024/01/03 12:13:50;;;;;;;7.90;2.60;;;;;;;;;;103548;1294;547887;-71
2024/01/03 12:17:07;;;;;;;8.10;2.00;;;;;;;;;;103450;1291;546014;-70
2024/01/03 12:20:45;;;;;;;9.00;2.80;;;;;;;;;;103792;1303;544938;-70
2024/01/03 12:24:18;;;;;;;6.80;2.80;;;;;;;;;;103768;1288;544978;-70
2024/01/03 12:27:59;;;;;;;9.40;3.90;;;;;;;;;;103858;1291;544803;-70
2024/01/03 12:31:38;;;;;;;6.90;2.50;;;;;;;;;;104317;1285;545453;-71
2024/01/03 12:35:14;;;;;;;8.10;2.60;;;;;;;;;;103887;1289;544951;-72
2024/01/03 12:38:58;;;;;;;5.50;1.80;;;;;;;;;;103776;1292;545499;-70
2024/01/03 12:42:30;;;;;;;9.70;3.60;;;;;;;;;;103679;1291;545478;-74
2024/01/03 12:46:07;;;;;;;7.50;2.50;;;;;;;;;;103616;1298;545759;-71
2024/01/03 12:49:44;;;;;;;7.20;2.50;;;;;;;;;;103806;1291;545269;-72
2024/01/03 12:53:22;;;;;;;8.30;3.00;;;;;;;;;;103678;1292;545048;-71
2024/01/03 12:56:59;;;;;;;8.90;3.10;;;;;;;;;;103877;1290;545051;-72
2024/01/03 13:00:36;;;;;;;8.40;3.00;;;;;;;;;;103725;1291;544991;-69
2024/01/03 13:04:14;;;;;;;8.30;3.20;;;;;;;;;;103751;1291;545878;-71
2024/01/03 13:07:48;;;;;;;9.40;4.10;;;;;;;;;;103904;1288;544737;-71
2024/01/03 13:11:31;;;;;;;10.30;4.20;;;;;;;;;;103421;1305;544701;-71
2024/01/03 13:15:08;;;;;;;10.50;3.80;;;;;;;;;;103721;1291;545663;-73
2024/01/03 13:18:44;;;;;;;8.70;3.20;;;;;;;;;;103801;1290;545067;-72
2024/01/03 13:22:22;;;;;;;9.60;3.40;;;;;;;;;;103721;1292;545282;-71
2024/01/03 13:25:55;;;;;;;10.70;4.00;;;;;;;;;;103522;1291;545093;-70
2024/01/03 13:29:36;;;;;;;12.40;5.20;;;;;;;;;;103773;1292;545993;-71
2024/01/03 13:33:33;;;;;;;11.50;4.30;;;;;;;;;;103743;1289;547833;-69
2024/01/03 13:36:48;;;;;;;10.10;3.20;;;;;;;;;;103892;1288;545570;-69
2024/01/03 13:40:29;;;;;;;9.60;3.80;;;;;;;;;;103562;1292;545820;-69
2024/01/03 13:44:06;;;;;;;11.60;5.10;;;;;;;;;;103776;1292;545090;-71
2024/01/03 13:47:45;;;;;;;11.80;4.10;;;;;;;;;;103406;1295;546039;-70
2024/01/03 13:51:21;;;;;;;10.50;4.40;;;;;;;;;;103861;1293;545173;-72
2024/01/03 13:55:00;;;;;;;11.50;4.90;;;;;;;;;;103878;1298;544874;-69
2024/01/03 13:58:36;;;;;;;13.80;5.80;;;;;;;;;;103763;1289;545114;-70
2024/01/03 14:02:14;;;;;;;12.80;4.80;;;;;;;;;;103572;1294;545645;-70
2024/01/03 14:05:51;;;;;;;12.70;4.90;;;;;;;;;;103763;1291;544810;-69
2024/01/03 14:09:29;;;;;;;11.30;4.60;;;;;;;;;;103743;1292;545593;-70
2024/01/03 14:13:06;;;;;;;10.80;3.90;;;;;;;;;;103619;1295;544964;-71
2024/01/03 14:16:44;;;;;;;10.70;4.00;;;;;;;;;;103670;1291;545175;-72
2024/01/03 14:20:17;;;;;;;11.90;4.40;;;;;;;;;;103849;1289;544840;-70
2024/01/03 14:23:58;;;;;;;15.80;6.10;;;;;;;;;;103839;1291;545840;-70
2024/01/03 14:27:36;;;;;;;14.30;5.50;;;;;;;;;;103932;1289;544731;-69
2024/01/03 14:31:13;;;;;;;13.30;5.60;;;;;;;;;;104073;1290;544813;-70
2024/01/03 14:34:47;;;;;;;10.00;3.50;;;;;;;;;;103935;1287;545007;-70
2024/01/03 14:38:29;;;;;;;12.40;4.20;;;;;;;;;;103633;1289;544992;-71
2024/01/03 14:42:10;;;;;;;15.20;6.20;;;;;;;;;;103354;1291;545120;-69
2024/01/03 14:45:43;;;;;;;11.90;5.30;;;;;;;;;;103650;1289;545394;-70
2024/01/03 14:49:20;;;;;;;11.10;5.80;;;;;;;;;;103799;1292;544838;-70
2024/01/03 14:52:58;;;;;;;12.20;6.30;;;;;;;;;;103548;1295;545397;-69
2024/01/03 14:56:36;;;;;;;9.20;4.30;;;;;;;;;;103515;1291;544797;-69
2024/01/03 15:00:13;;;;;;;9.30;3.90;;;;;;;;;;103730;1293;545274;-71
2024/01/03 15:03:51;;;;;;;11.10;4.80;;;;;;;;;;103874;1296;544914;-69
2024/01/03 15:07:29;;;;;;;13.70;5.50;;;;;;;;;;103565;1288;544984;-70
2024/01/03 15:11:06;;;;;;;24.30;10.70;;;;;;;;;;103561;1295;545570;-69
2024/01/03 15:14:43;;;;;;;17.60;8.80;;;;;;;;;;103712;1290;544882;-70
2024/01/03 15:18:21;;;;;;;12.90;5.60;;;;;;;;;;103708;1291;545228;-69
2024/01/03 15:22:14;;;;;;;14.00;6.30;;;;;;;;;;103567;1291;544780;-70
2024/01/03 15:25:38;;;;;;;18.20;7.50;;;;;;;;;;103680;1292;544761;-71
2024/01/03 15:29:15;;;;;;;18.60;9.30;;;;;;;;;;103534;1297;545028;-71
2024/01/03 15:32:54;;;;;;;18.10;8.90;;;;;;;;;;103876;1288;545034;-70
2024/01/03 15:36:28;;;;;;;18.20;9.00;;;;;;;;;;103731;1289;544808;-69
2024/01/03 15:40:10;;;;;;;15.20;7.20;;;;;;;;;;103734;1292;544810;-70
2024/01/03 15:43:43;;;;;;;12.60;6.20;;;;;;;;;;103590;1291;545316;-71
2024/01/03 15:47:21;;;;;;;9.10;4.20;;;;;;;;;;103838;1289;544858;-69
2024/01/03 15:50:57;;;;;;;9.40;4.40;;;;;;;;;;103595;1291;544955;-68
2024/01/03 15:54:36;;;;;;;12.30;5.90;;;;;;;;;;104363;1289;545065;-69
2024/01/03 15:58:09;;;;;;;16.40;5.60;;;;;;;;;;104276;1286;544909;-72
2024/01/03 16:01:50;;;;;;;11.70;4.80;;;;;;;;;;103435;1292;545484;-70
2024/01/03 16:05:24;;;;;;;7.60;3.10;;;;;;;;;;104004;1291;545982;-72
2024/01/03 16:09:08;;;;;;;9.40;3.60;;;;;;;;;;105613;1289;544867;-71
2024/01/03 16:12:48;;;;;;;8.40;3.30;;;;;;;;;;103770;1292;547634;-70
2024/01/03 16:16:20;;;;;;;48.90;22.50;;;;;;;;;;103854;1292;545737;-70
2024/01/03 16:19:58;;;;;;;13.70;6.30;;;;;;;;;;103814;1292;545473;-69
2024/01/03 16:23:32;;;;;;;9.20;3.60;;;;;;;;;;103966;1289;545365;-70
2024/01/03 16:27:13;;;;;;;8.30;4.20;;;;;;;;;;103974;1289;545560;-68
2024/01/03 16:30:46;;;;;;;10.90;5.00;;;;;;;;;;103771;1292;545026;-71
2024/01/03 16:34:28;;;;;;;14.20;6.30;;;;;;;;;;103466;1292;544875;-71
2024/01/03 16:38:08;;;;;;;21.90;10.40;;;;;;;;;;103660;1292;544815;-69
2024/01/03 16:41:42;;;;;;;20.40;9.60;;;;;;;;;;103554;1292;545019;-71
2024/01/03 16:45:18;;;;;;;21.80;9.90;;;;;;;;;;103924;1292;545601;-69
2024/01/03 16:48:53;;;;;;;19.50;8.20;;;;;;;;;;103591;1298;545842;-69
2024/01/03 16:52:37;;;;;;;16.90;5.70;;;;;;;;;;103637;1289;544871;-69
2024/01/03 16:56:12;;;;;;;16.20;6.30;;;;;;;;;;103371;1292;545198;-69
2024/01/03 16:59:50;;;;;;;21.50;7.80;;;;;;;;;;103637;1291;546290;-69
2024/01/03 17:03:30;;;;;;;23.30;10.00;;;;;;;;;;103730;1291;545040;-71
2024/01/03 17:07:04;;;;;;;18.50;8.60;;;;;;;;;;103702;1289;544775;-71
2024/01/03 17:10:42;;;;;;;21.60;10.30;;;;;;;;;;103703;1291;545441;-71
2024/01/03 17:14:20;;;;;;;17.70;8.40;;;;;;;;;;103896;1289;545129;-71
2024/01/03 17:17:57;;;;;;;10.20;5.00;;;;;;;;;;103666;1291;545507;-70
2024/01/03 17:21:35;;;;;;;9.40;3.90;;;;;;;;;;103804;1289;544748;-69
2024/01/03 17:25:12;;;;;;;11.90;4.50;;;;;;;;;;103648;1296;545008;-69
2024/01/03 17:28:49;;;;;;;8.40;3.40;;;;;;;;;;103847;1290;544844;-71
2024/01/03 17:32:26;;;;;;;48.40;18.70;;;;;;;;;;103763;1291;545264;-71
2024/01/03 17:36:05;;;;;;;31.40;13.60;;;;;;;;;;103489;1303;544905;-71
2024/01/03 17:39:43;;;;;;;61.00;27.00;;;;;;;;;;103681;1291;546191;-71
2024/01/03 17:43:19;;;;;;;10.90;5.00;;;;;;;;;;104462;1283;545026;-71
2024/01/03 17:46:52;;;;;;;24.20;14.40;;;;;;;;;;103812;1293;544945;-69
2024/01/03 17:50:34;;;;;;;33.90;22.80;;;;;;;;;;103936;1296;545474;-71
2024/01/03 17:54:13;;;;;;;21.10;14.00;;;;;;;;;;103713;1291;545523;-70
2024/01/03 17:57:45;;;;;;;14.90;9.60;;;;;;;;;;104040;1289;545970;-71
2024/01/03 18:01:26;;;;;;;16.50;10.90;;;;;;;;;;103529;1292;544753;-71
2024/01/03 18:05:10;;;;;;;24.10;12.80;;;;;;;;;;103713;1292;548054;-71
2024/01/03 18:09:03;;;;;;;14.60;6.80;;;;;;;;;;103559;1291;548147;-71
2024/01/03 18:12:21;;;;;;;25.10;13.80;;;;;;;;;;103858;1292;544881;-71
2024/01/03 18:15:56;;;;;;;29.20;13.80;;;;;;;;;;103642;1289;544886;-68
2024/01/03 18:19:34;;;;;;;18.30;7.70;;;;;;;;;;103463;1292;545033;-72
2024/01/03 18:23:14;;;;;;;13.30;5.40;;;;;;;;;;103484;1293;544732;-69
2024/01/03 18:26:49;;;;;;;20.90;8.50;;;;;;;;;;104575;1289;545078;-69
2024/01/03 18:30:22;;;;;;;12.90;5.60;;;;;;;;;;104975;1289;545012;-70
2024/01/03 18:34:03;;;;;;;11.00;4.30;;;;;;;;;;104812;1289;545379;-71
2024/01/03 18:37:40;;;;;;;13.10;5.10;;;;;;;;;;104608;1290;545613;-69
2024/01/03 18:41:19;;;;;;;10.00;4.20;;;;;;;;;;104905;1292;545021;-70
2024/01/03 18:44:57;;;;;;;10.70;4.80;;;;;;;;;;104681;1289;544949;-71
2024/01/03 18:48:53;;;;;;;10.60;5.20;;;;;;;;;;104765;1293;546651;-70
2024/01/03 18:52:10;;;;;;;11.30;4.50;;;;;;;;;;105010;1289;544731;-72
2024/01/03 18:55:49;;;;;;;10.50;4.00;;;;;;;;;;104175;1291;545004;-72
2024/01/03 18:59:26;;;;;;;10.50;4.80;;;;;;;;;;103746;1292;545437;-72
2024/01/03 19:03:04;;;;;;;12.90;5.30;;;;;;;;;;103679;1292;545741;-72
2024/01/03 19:06:41;;;;;;;14.60;5.70;;;;;;;;;;103724;1292;545110;-71
2024/01/03 19:10:18;;;;;;;12.90;5.80;;;;;;;;;;103718;1291;544905;-71
2024/01/03 19:13:56;;;;;;;11.80;5.20;;;;;;;;;;103892;1288;544960;-71
2024/01/03 19:17:53;;;;;;;8.90;3.90;;;;;;;;;;103686;1294;547960;-70
2024/01/03 19:21:10;;;;;;;10.00;4.40;;;;;;;;;;104222;1288;545200;-71
2024/01/03 19:24:48;;;;;;;9.60;4.60;;;;;;;;;;103765;1292;544972;-72
2024/01/03 19:28:27;;;;;;;10.00;4.20;;;;;;;;;;103519;1292;545837;-70
2024/01/03 19:32:03;;;;;;;8.80;4.10;;;;;;;;;;103581;1289;545045;-70
2024/01/03 19:35:40;;;;;;;12.20;5.30;;;;;;;;;;103954;1290;544768;-71
2024/01/03 19:39:18;;;;;;;8.70;4.10;;;;;;;;;;103776;1295;545511;-69
2024/01/03 19:42:55;;;;;;;8.60;3.60;;;;;;;;;;103725;1289;544862;-70
2024/01/03 19:46:40;;;;;;;8.60;3.30;;;;;;;;;;103636;1292;547798;-70
2024/01/03 19:50:10;;;;;;;12.50;5.60;;;;;;;;;;103782;1295;545713;-69
2024/01/03 19:53:48;;;;;;;8.60;4.50;;;;;;;;;;103563;1291;545051;-69
2024/01/03 19:57:28;;;;;;;9.70;3.90;;;;;;;;;;103533;1289;545053;-70
2024/01/03 20:01:03;;;;;;;11.70;5.10;;;;;;;;;;103752;1291;545243;-68
2024/01/03 20:04:40;;;;;;;12.90;5.60;;;;;;;;;;103931;1293;544939;-69
2024/01/03 20:08:18;;;;;;;13.50;6.10;;;;;;;;;;103562;1291;544727;-69
2024/01/03 20:11:55;;;;;;;15.30;6.00;;;;;;;;;;104619;1280;544996;-72
2024/01/03 20:15:38;;;;;;;23.50;9.80;;;;;;;;;;103639;1289;545228;-73
2024/01/03 20:19:10;;;;;;;15.90;6.50;;;;;;;;;;103716;1299;545013;-71
2024/01/03 20:22:53;;;;;;;23.30;10.50;;;;;;;;;;103299;1295;544757;-70
2024/01/03 20:26:26;;;;;;;11.40;4.60;;;;;;;;;;103758;1289;545010;-69
2024/01/03 20:30:02;;;;;;;12.00;4.50;;;;;;;;;;103761;1294;544932;-70
2024/01/03 20:33:40;;;;;;;11.10;4.50;;;;;;;;;;103696;1295;545089;-70
2024/01/03 20:37:17;;;;;;;14.40;4.60;;;;;;;;;;103471;1291;545368;-69
2024/01/03 20:40:56;;;;;;;12.10;4.90;;;;;;;;;;103766;1292;544986;-72
2024/01/03 20:44:33;;;;;;;11.70;5.60;;;;;;;;;;103540;1292;545154;-70
2024/01/03 20:48:09;;;;;;;9.60;3.80;;;;;;;;;;103946;1289;544864;-71
2024/01/03 20:51:48;;;;;;;10.10;4.50;;;;;;;;;;103627;1289;545232;-70
2024/01/03 20:55:25;;;;;;;10.50;4.80;;;;;;;;;;103650;1291;545326;-73
2024/01/03 20:59:08;;;;;;;13.10;5.20;;;;;;;;;;103663;1290;548298;-72
2024/01/03 21:02:41;;;;;;;14.90;7.30;;;;;;;;;;104003;1289;544983;-72
2024/01/03 21:06:17;;;;;;;11.10;5.60;;;;;;;;;;103751;1295;544981;-71